sensor_id;sensor_type;location;lat;lon;timestamp;pressure;altitude;pressure_sealevel;temperature;humidity
63493;BME280;49638;47.526;10.028;2023-04-01T00:01:36;90627.22;;;6.35;72.00
63493;BME280;49638;47.526;10.028;2023-04-01T00:04:36;90646.94;;;6.38;72.05
63493;BME280;49638;47.526;10.028;2023-04-01T00:07:37;90620.56;;;6.28;72.23
63493;BME280;49638;47.526;10.028;2023-04-01T00:10:38;90633.63;;;6.23;72.23
63493;BME280;49638;47.526;10.028;2023-04-01T00:13:38;90639.97;;;6.27;72.04
63493;BME280;49638;47.526;10.028;2023-04-01T00:16:38;90647.59;;;6.28;72.39
63493;BME280;49638;47.526;10.028;2023-04-01T00:19:39;90631.72;;;6.18;72.52
63493;BME280;49638;47.526;10.028;2023-04-01T00:22:39;90629.44;;;6.22;72.96
63493;BME280;49638;47.526;10.028;2023-04-01T00:25:40;90644.66;;;6.25;72.84
63493;BME280;49638;47.526;10.028;2023-04-01T00:28:40;90625.69;;;6.18;72.51
63493;BME280;49638;47.526;10.028;2023-04-01T00:31:41;90628.31;;;6.18;72.72
63493;BME280;49638;47.526;10.028;2023-04-01T00:34:41;90625.69;;;6.18;73.00
63493;BME280;49638;47.526;10.028;2023-04-01T00:37:42;90606.66;;;6.05;73.35
63493;BME280;49638;47.526;10.028;2023-04-01T00:40:44;90595.56;;;5.98;73.47
63493;BME280;49638;47.526;10.028;2023-04-01T00:43:47;90614.56;;;6.10;73.60
63493;BME280;49638;47.526;10.028;2023-04-01T00:46:49;90621.09;;;6.08;73.47
63493;BME280;49638;47.526;10.028;2023-04-01T00:49:51;90620.31;;;6.07;73.71
63493;BME280;49638;47.526;10.028;2023-04-01T00:52:52;90623.34;;;5.99;73.87
63493;BME280;49638;47.526;10.028;2023-04-01T00:56:10;90617.31;;;5.99;74.35
63493;BME280;49638;47.526;10.028;2023-04-01T00:59:14;90620.25;;;6.02;73.91
63493;BME280;49638;47.526;10.028;2023-04-01T01:02:16;90616.06;;;6.01;74.19
63493;BME280;49638;47.526;10.028;2023-04-01T01:05:18;90612.00;;;5.93;74.12
63493;BME280;49638;47.526;10.028;2023-04-01T01:08:39;90609.16;;;5.95;74.31
63493;BME280;49638;47.526;10.028;2023-04-01T01:11:50;90613.97;;;6.03;74.01
63493;BME280;49638;47.526;10.028;2023-04-01T01:18:27;90621.28;;;6.01;74.38
63493;BME280;49638;47.526;10.028;2023-04-01T01:28:21;90626.03;;;5.87;76.92
63493;BME280;49638;47.526;10.028;2023-04-01T01:38:07;90641.63;;;5.77;76.03
63493;BME280;49638;47.526;10.028;2023-04-01T01:41:09;90618.13;;;5.65;76.01
63493;BME280;49638;47.526;10.028;2023-04-01T01:44:14;90632.00;;;5.83;76.05
63493;BME280;49638;47.526;10.028;2023-04-01T01:47:16;90622.09;;;5.85;76.07
63493;BME280;49638;47.526;10.028;2023-04-01T01:50:18;90611.59;;;5.85;76.11
63493;BME280;49638;47.526;10.028;2023-04-01T01:53:20;90627.09;;;5.86;76.08
63493;BME280;49638;47.526;10.028;2023-04-01T01:56:23;90624.72;;;5.85;75.98
63493;BME280;49638;47.526;10.028;2023-04-01T01:59:27;90623.91;;;5.84;76.16
63493;BME280;49638;47.526;10.028;2023-04-01T02:02:30;90608.91;;;5.80;75.91
63493;BME280;49638;47.526;10.028;2023-04-01T02:05:31;90609.94;;;5.79;75.90
63493;BME280;49638;47.526;10.028;2023-04-01T02:11:46;90614.63;;;5.77;77.14
63493;BME280;49638;47.526;10.028;2023-04-01T02:14:58;90616.69;;;5.75;76.85
63493;BME280;49638;47.526;10.028;2023-04-01T02:18:01;90593.50;;;5.66;76.67
63493;BME280;49638;47.526;10.028;2023-04-01T02:21:03;90615.41;;;5.77;76.29
63493;BME280;49638;47.526;10.028;2023-04-01T02:24:08;90626.16;;;5.76;76.67
63493;BME280;49638;47.526;10.028;2023-04-01T02:27:10;90632.28;;;5.64;76.88
63493;BME280;49638;47.526;10.028;2023-04-01T02:30:12;90614.50;;;5.50;77.10
63493;BME280;49638;47.526;10.028;2023-04-01T02:33:13;90640.53;;;5.56;77.55
63493;BME280;49638;47.526;10.028;2023-04-01T02:36:15;90635.75;;;5.53;77.68
63493;BME280;49638;47.526;10.028;2023-04-01T02:39:16;90648.41;;;5.56;77.67
63493;BME280;49638;47.526;10.028;2023-04-01T02:42:16;90649.91;;;5.52;77.69
63493;BME280;49638;47.526;10.028;2023-04-01T02:45:16;90645.94;;;5.50;77.38
63493;BME280;49638;47.526;10.028;2023-04-01T02:48:17;90619.97;;;5.48;77.55
63493;BME280;49638;47.526;10.028;2023-04-01T02:51:17;90641.47;;;5.50;77.93
63493;BME280;49638;47.526;10.028;2023-04-01T02:54:18;90640.69;;;5.50;77.87
63493;BME280;49638;47.526;10.028;2023-04-01T02:57:18;90634.19;;;5.52;77.87
63493;BME280;49638;47.526;10.028;2023-04-01T03:00:19;90614.50;;;5.50;78.01
63493;BME280;49638;47.526;10.028;2023-04-01T03:03:19;90617.03;;;5.44;78.38
63493;BME280;49638;47.526;10.028;2023-04-01T03:06:20;90630.94;;;5.45;78.45
63493;BME280;49638;47.526;10.028;2023-04-01T03:09:20;90634.13;;;5.47;78.29
63493;BME280;49638;47.526;10.028;2023-04-01T03:12:20;90632.78;;;5.44;78.56
63493;BME280;49638;47.526;10.028;2023-04-01T03:15:20;90634.34;;;5.45;78.95
63493;BME280;49638;47.526;10.028;2023-04-01T03:18:21;90627.84;;;5.48;78.57
63493;BME280;49638;47.526;10.028;2023-04-01T03:21:23;90623.72;;;5.52;77.99
63493;BME280;49638;47.526;10.028;2023-04-01T03:24:23;90626.91;;;5.54;77.74
63493;BME280;49638;47.526;10.028;2023-04-01T03:27:23;90612.13;;;5.48;77.33
63493;BME280;49638;47.526;10.028;2023-04-01T03:30:24;90625.13;;;5.43;77.77
63493;BME280;49638;47.526;10.028;2023-04-01T03:33:24;90630.38;;;5.43;77.67
63493;BME280;49638;47.526;10.028;2023-04-01T03:36:24;90643.00;;;5.46;77.75
63493;BME280;49638;47.526;10.028;2023-04-01T03:39:25;90651.50;;;5.36;77.91
63493;BME280;49638;47.526;10.028;2023-04-01T03:42:25;90645.22;;;5.37;78.21
63493;BME280;49638;47.526;10.028;2023-04-01T03:45:25;90635.28;;;5.39;78.01
63493;BME280;49638;47.526;10.028;2023-04-01T03:48:25;90627.06;;;5.31;78.06
63493;BME280;49638;47.526;10.028;2023-04-01T03:51:26;90631.72;;;5.29;78.24
63493;BME280;49638;47.526;10.028;2023-04-01T03:54:26;90637.13;;;5.39;78.59
63493;BME280;49638;47.526;10.028;2023-04-01T03:57:27;90641.91;;;5.42;78.32
63493;BME280;49638;47.526;10.028;2023-04-01T04:00:29;90622.81;;;5.30;77.85
63493;BME280;49638;47.526;10.028;2023-04-01T04:03:29;90618.72;;;5.34;77.54
63493;BME280;49638;47.526;10.028;2023-04-01T04:06:29;90643.00;;;5.46;77.76
63493;BME280;49638;47.526;10.028;2023-04-01T04:09:31;90635.44;;;5.50;77.25
63493;BME280;49638;47.526;10.028;2023-04-01T04:12:31;90639.69;;;5.51;77.32
63493;BME280;49638;47.526;10.028;2023-04-01T04:15:31;90639.44;;;5.52;77.08
63493;BME280;49638;47.526;10.028;2023-04-01T04:18:32;90649.19;;;5.57;76.55
63493;BME280;49638;47.526;10.028;2023-04-01T04:21:32;90626.16;;;5.42;76.87
63493;BME280;49638;47.526;10.028;2023-04-01T04:24:36;90641.31;;;5.57;76.51
63493;BME280;49638;47.526;10.028;2023-04-01T04:27:36;90632.34;;;5.53;76.47
63493;BME280;49638;47.526;10.028;2023-04-01T04:30:36;90632.66;;;5.56;76.48
63493;BME280;49638;47.526;10.028;2023-04-01T04:33:37;90645.63;;;5.63;76.37
63493;BME280;49638;47.526;10.028;2023-04-01T04:36:37;90636.75;;;5.47;76.64
63493;BME280;49638;47.526;10.028;2023-04-01T04:39:37;90640.84;;;5.60;76.77
63493;BME280;49638;47.526;10.028;2023-04-01T04:42:38;90649.75;;;5.59;76.88
63493;BME280;49638;47.526;10.028;2023-04-01T04:45:38;90648.09;;;5.53;76.93
63493;BME280;49638;47.526;10.028;2023-04-01T04:48:38;90630.16;;;5.44;76.81
63493;BME280;49638;47.526;10.028;2023-04-01T04:51:39;90634.13;;;5.47;77.08
63493;BME280;49638;47.526;10.028;2023-04-01T04:54:39;90626.66;;;5.39;76.95
63493;BME280;49638;47.526;10.028;2023-04-01T04:57:40;90630.38;;;5.43;76.54
63493;BME280;49638;47.526;10.028;2023-04-01T05:00:40;90631.00;;;5.50;76.28
63493;BME280;49638;47.526;10.028;2023-04-01T05:03:41;90635.69;;;5.48;76.38
63493;BME280;49638;47.526;10.028;2023-04-01T05:06:42;90635.38;;;5.44;75.89
63493;BME280;49638;47.526;10.028;2023-04-01T05:09:43;90635.63;;;5.43;75.77
63493;BME280;49638;47.526;10.028;2023-04-01T05:12:45;90636.81;;;5.52;75.46
63493;BME280;49638;47.526;10.028;2023-04-01T05:15:46;90634.19;;;5.52;75.27
63493;BME280;49638;47.526;10.028;2023-04-01T05:18:46;90634.75;;;5.54;74.99
63493;BME280;49638;47.526;10.028;2023-04-01T05:21:47;90625.75;;;5.50;74.92
63493;BME280;49638;47.526;10.028;2023-04-01T05:24:47;90614.50;;;5.50;74.77
63493;BME280;49638;47.526;10.028;2023-04-01T05:27:47;90638.69;;;5.57;74.87
63493;BME280;49638;47.526;10.028;2023-04-01T05:30:48;90645.25;;;5.54;75.16
63493;BME280;49638;47.526;10.028;2023-04-01T05:33:48;90647.22;;;5.47;75.12
63493;BME280;49638;47.526;10.028;2023-04-01T05:36:48;90675.38;;;5.40;75.97
63493;BME280;49638;47.526;10.028;2023-04-01T05:39:49;90672.78;;;5.23;76.46
63493;BME280;49638;47.526;10.028;2023-04-01T05:42:49;90667.00;;;5.09;77.86
63493;BME280;49638;47.526;10.028;2023-04-01T05:45:49;90664.78;;;5.01;78.22
63493;BME280;49638;47.526;10.028;2023-04-01T05:48:50;90649.47;;;4.93;78.75
63493;BME280;49638;47.526;10.028;2023-04-01T05:51:50;90641.91;;;4.80;78.59
63493;BME280;49638;47.526;10.028;2023-04-01T05:54:51;90656.63;;;4.97;78.52
63493;BME280;49638;47.526;10.028;2023-04-01T05:57:51;90660.03;;;4.98;78.35
63493;BME280;49638;47.526;10.028;2023-04-01T06:01:00;90656.88;;;4.96;79.60
63493;BME280;49638;47.526;10.028;2023-04-01T06:04:00;90666.03;;;4.98;78.84
63493;BME280;49638;47.526;10.028;2023-04-01T06:07:01;90654.63;;;5.05;78.55
63493;BME280;49638;47.526;10.028;2023-04-01T06:10:01;90658.75;;;5.01;78.33
63493;BME280;49638;47.526;10.028;2023-04-01T06:13:11;90667.97;;;5.03;79.07
63493;BME280;49638;47.526;10.028;2023-04-01T06:16:39;90671.13;;;5.05;79.54
63493;BME280;49638;47.526;10.028;2023-04-01T06:19:47;90672.75;;;5.06;78.72
63493;BME280;49638;47.526;10.028;2023-04-01T06:23:04;90669.31;;;5.06;79.84
63493;BME280;49638;47.526;10.028;2023-04-01T06:26:15;90673.63;;;5.12;78.80
63493;BME280;49638;47.526;10.028;2023-04-01T06:29:54;90675.44;;;5.11;79.03
63493;BME280;49638;47.526;10.028;2023-04-01T06:42:19;90668.19;;;5.30;77.88
63493;BME280;49638;47.526;10.028;2023-04-01T06:52:17;90680.25;;;5.48;78.24
63493;BME280;49638;47.526;10.028;2023-04-01T06:55:27;90672.94;;;5.50;77.73
63493;BME280;49638;47.526;10.028;2023-04-01T06:58:34;90677.22;;;5.56;77.03
63493;BME280;49638;47.526;10.028;2023-04-01T07:01:40;90666.75;;;5.56;77.27
63493;BME280;49638;47.526;10.028;2023-04-01T07:04:46;90663.16;;;5.62;77.63
63493;BME280;49638;47.526;10.028;2023-04-01T07:07:52;90661.59;;;5.61;77.33
63493;BME280;49638;47.526;10.028;2023-04-01T07:11:02;90664.06;;;5.68;77.16
63493;BME280;49638;47.526;10.028;2023-04-01T07:17:36;90664.91;;;5.74;77.33
63493;BME280;49638;47.526;10.028;2023-04-01T07:20:39;90666.19;;;5.88;77.08
63493;BME280;49638;47.526;10.028;2023-04-01T07:23:42;90662.44;;;6.01;76.92
63493;BME280;49638;47.526;10.028;2023-04-01T07:26:44;90662.41;;;6.18;76.69
63493;BME280;49638;47.526;10.028;2023-04-01T07:29:45;90665.56;;;6.36;76.20
63493;BME280;49638;47.526;10.028;2023-04-01T07:33:04;90663.78;;;6.42;75.30
63493;BME280;49638;47.526;10.028;2023-04-01T07:36:24;90652.19;;;6.60;75.31
63493;BME280;49638;47.526;10.028;2023-04-01T07:46:27;90642.69;;;6.81;73.48
63493;BME280;49638;47.526;10.028;2023-04-01T07:49:44;90630.97;;;6.88;73.71
63493;BME280;49638;47.526;10.028;2023-04-01T07:53:07;90642.81;;;6.91;72.24
63493;BME280;49638;47.526;10.028;2023-04-01T07:56:34;90649.03;;;7.07;74.44
63493;BME280;49638;47.526;10.028;2023-04-01T08:06:32;90650.78;;;7.28;73.16
63493;BME280;49638;47.526;10.028;2023-04-01T08:09:52;90652.47;;;7.40;71.80
63493;BME280;49638;47.526;10.028;2023-04-01T08:13:16;90649.88;;;7.45;69.32
63493;BME280;49638;47.526;10.028;2023-04-01T08:16:59;90651.34;;;7.63;72.19
63493;BME280;49638;47.526;10.028;2023-04-01T08:23:27;90661.28;;;7.55;72.55
63493;BME280;49638;47.526;10.028;2023-04-01T08:26:37;90656.56;;;7.57;71.85
63493;BME280;49638;47.526;10.028;2023-04-01T08:29:47;90649.63;;;7.46;71.42
63493;BME280;49638;47.526;10.028;2023-04-01T08:32:56;90666.75;;;7.49;70.79
63493;BME280;49638;47.526;10.028;2023-04-01T08:36:20;90666.28;;;7.57;69.50
63493;BME280;49638;47.526;10.028;2023-04-01T08:39:43;90658.72;;;7.66;69.85
63493;BME280;49638;47.526;10.028;2023-04-01T08:43:12;90667.50;;;7.76;71.42
63493;BME280;49638;47.526;10.028;2023-04-01T08:53:19;90670.56;;;8.00;72.39
63493;BME280;49638;47.526;10.028;2023-04-01T08:56:26;90668.50;;;8.07;72.40
63493;BME280;49638;47.526;10.028;2023-04-01T09:00:00;90661.31;;;7.98;71.08
63493;BME280;49638;47.526;10.028;2023-04-01T09:06:34;90659.88;;;7.75;73.11
63493;BME280;49638;47.526;10.028;2023-04-01T09:09:59;90669.06;;;7.77;72.53
63493;BME280;49638;47.526;10.028;2023-04-01T09:19:51;90686.22;;;7.53;73.42
63493;BME280;49638;47.526;10.028;2023-04-01T09:33:17;90680.66;;;7.44;73.01
63493;BME280;49638;47.526;10.028;2023-04-01T09:43:23;90684.97;;;7.28;74.93
63493;BME280;49638;47.526;10.028;2023-04-01T09:46:48;90695.75;;;7.32;75.77
63493;BME280;49638;47.526;10.028;2023-04-01T09:57:21;90705.31;;;7.16;75.30
63493;BME280;49638;47.526;10.028;2023-04-01T10:04:43;90681.16;;;6.92;76.78
63493;BME280;49638;47.526;10.028;2023-04-01T10:28:18;90700.16;;;6.99;77.06
63493;BME280;49638;47.526;10.028;2023-04-01T10:59:31;90702.53;;;6.79;80.73
63493;BME280;49638;47.526;10.028;2023-04-01T11:16:26;90695.41;;;6.74;78.80
63493;BME280;49638;47.526;10.028;2023-04-01T11:29:30;90692.00;;;6.74;79.60
63493;BME280;49638;47.526;10.028;2023-04-01T11:39:17;90694.13;;;6.55;80.49
63493;BME280;49638;47.526;10.028;2023-04-01T11:42:40;90720.84;;;6.52;81.37
63493;BME280;49638;47.526;10.028;2023-04-01T11:48:51;90700.28;;;6.66;79.17
63493;BME280;49638;47.526;10.028;2023-04-01T11:55:32;90670.63;;;6.65;79.33
63493;BME280;49638;47.526;10.028;2023-04-01T12:02:34;90690.84;;;6.86;81.88
63493;BME280;49638;47.526;10.028;2023-04-01T12:08:50;90697.19;;;6.91;80.41
63493;BME280;49638;47.526;10.028;2023-04-01T12:22:21;90696.19;;;6.97;79.08
63493;BME280;49638;47.526;10.028;2023-04-01T12:32:40;90722.41;;;7.14;81.13
63493;BME280;49638;47.526;10.028;2023-04-01T12:39:47;90705.38;;;7.21;80.33
63493;BME280;49638;47.526;10.028;2023-04-01T12:46:26;90696.63;;;7.38;79.05
63493;BME280;49638;47.526;10.028;2023-04-01T12:53:44;90687.22;;;7.47;80.85
63493;BME280;49638;47.526;10.028;2023-04-01T13:03:44;90695.72;;;7.27;80.23
63493;BME280;49638;47.526;10.028;2023-04-01T13:10:55;90704.03;;;7.19;81.37
63493;BME280;49638;47.526;10.028;2023-04-01T13:27:03;90710.38;;;7.23;80.32
63493;BME280;49638;47.526;10.028;2023-04-01T13:36:19;90723.03;;;7.26;79.79
63493;BME280;49638;47.526;10.028;2023-04-01T13:42:56;90723.00;;;7.21;80.33
63493;BME280;49638;47.526;10.028;2023-04-01T13:49:19;90718.94;;;7.35;79.70
63493;BME280;49638;47.526;10.028;2023-04-01T13:52:49;90699.19;;;7.32;81.05
63493;BME280;49638;47.526;10.028;2023-04-01T14:03:14;90707.72;;;7.45;80.03
63493;BME280;49638;47.526;10.028;2023-04-01T14:06:35;90706.38;;;7.42;80.19
63493;BME280;49638;47.526;10.028;2023-04-01T14:10:02;90707.66;;;7.40;80.42
63493;BME280;49638;47.526;10.028;2023-04-01T14:13:25;90703.44;;;7.39;81.49
63493;BME280;49638;47.526;10.028;2023-04-01T14:19:39;90714.16;;;7.32;80.10
63493;BME280;49638;47.526;10.028;2023-04-01T14:26:16;90724.88;;;7.25;80.36
63493;BME280;49638;47.526;10.028;2023-04-01T14:33:00;90728.84;;;7.28;79.80
63493;BME280;49638;47.526;10.028;2023-04-01T14:42:49;90725.66;;;7.26;78.35
63493;BME280;49638;47.526;10.028;2023-04-01T14:46:14;90722.53;;;7.29;78.72
63493;BME280;49638;47.526;10.028;2023-04-01T14:52:38;90717.25;;;7.24;79.33
63493;BME280;49638;47.526;10.028;2023-04-01T14:58:47;90704.94;;;7.29;77.56
63493;BME280;49638;47.526;10.028;2023-04-01T15:05:32;90711.06;;;7.40;78.17
63493;BME280;49638;47.526;10.028;2023-04-01T15:09:19;90707.38;;;7.36;79.62
63493;BME280;49638;47.526;10.028;2023-04-01T15:12:30;90715.84;;;7.43;77.99
63493;BME280;49638;47.526;10.028;2023-04-01T15:19:16;90739.59;;;7.26;79.16
63493;BME280;49638;47.526;10.028;2023-04-01T15:25:49;90742.78;;;7.06;80.25
63493;BME280;49638;47.526;10.028;2023-04-01T15:32:52;90721.22;;;7.04;79.71
63493;BME280;49638;47.526;10.028;2023-04-01T15:39:23;90724.53;;;6.95;80.26
63493;BME280;49638;47.526;10.028;2023-04-01T15:52:24;90716.72;;;7.00;80.12
63493;BME280;49638;47.526;10.028;2023-04-01T15:58:59;90736.31;;;6.92;80.95
63493;BME280;49638;47.526;10.028;2023-04-01T16:15:17;90739.91;;;6.86;82.41
63493;BME280;49638;47.526;10.028;2023-04-01T16:22:05;90763.69;;;6.74;82.39
63493;BME280;49638;47.526;10.028;2023-04-01T16:25:32;90780.97;;;6.70;83.75
63493;BME280;49638;47.526;10.028;2023-04-01T16:28:55;90804.16;;;6.56;84.17
63493;BME280;49638;47.526;10.028;2023-04-01T16:38:46;90798.81;;;6.18;87.90
63493;BME280;49638;47.526;10.028;2023-04-01T16:48:15;90767.19;;;6.07;85.25
63493;BME280;49638;47.526;10.028;2023-04-01T16:51:16;90777.22;;;6.10;84.24
63493;BME280;49638;47.526;10.028;2023-04-01T16:57:35;90778.56;;;6.13;84.95
63493;BME280;49638;47.526;10.028;2023-04-01T17:00:48;90783.66;;;6.20;83.95
63493;BME280;49638;47.526;10.028;2023-04-01T17:03:52;90779.13;;;6.15;83.38
63493;BME280;49638;47.526;10.028;2023-04-01T17:20:50;90785.06;;;6.10;85.31
63493;BME280;49638;47.526;10.028;2023-04-01T17:24:41;90782.94;;;6.07;84.38
63493;BME280;49638;47.526;10.028;2023-04-01T17:30:46;90775.94;;;5.96;84.59
63493;BME280;49638;47.526;10.028;2023-04-01T17:37:42;90796.53;;;6.04;85.30
63493;BME280;49638;47.526;10.028;2023-04-01T17:44:17;90805.22;;;6.05;85.73
63493;BME280;49638;47.526;10.028;2023-04-01T17:53:59;90801.53;;;6.06;84.37
63493;BME280;49638;47.526;10.028;2023-04-01T17:57:30;90801.75;;;6.04;84.92
63493;BME280;49638;47.526;10.028;2023-04-01T18:01:02;90801.91;;;5.98;84.96
63493;BME280;49638;47.526;10.028;2023-04-01T18:07:13;90814.59;;;5.89;83.81
63493;BME280;49638;47.526;10.028;2023-04-01T18:10:29;90807.69;;;5.83;83.83
63493;BME280;49638;47.526;10.028;2023-04-01T18:14:23;90818.63;;;5.80;84.22
63493;BME280;49638;47.526;10.028;2023-04-01T18:17:21;90810.53;;;5.64;83.57
63493;BME280;49638;47.526;10.028;2023-04-01T18:20:49;90816.31;;;5.66;83.53
63493;BME280;49638;47.526;10.028;2023-04-01T18:24:40;90817.75;;;5.57;85.36
63493;BME280;49638;47.526;10.028;2023-04-01T18:27:48;90811.28;;;5.48;84.38
63493;BME280;49638;47.526;10.028;2023-04-01T18:30:55;90808.41;;;5.50;83.84
63493;BME280;49638;47.526;10.028;2023-04-01T18:34:37;90817.97;;;5.56;85.79
63493;BME280;49638;47.526;10.028;2023-04-01T18:41:14;90812.06;;;5.49;86.13
63493;BME280;49638;47.526;10.028;2023-04-01T19:01:26;90838.97;;;5.73;84.73
63493;BME280;49638;47.526;10.028;2023-04-01T19:04:45;90839.22;;;5.71;83.93
63493;BME280;49638;47.526;10.028;2023-04-01T19:07:50;90832.50;;;5.63;83.60
63493;BME280;49638;47.526;10.028;2023-04-01T19:11:00;90831.38;;;5.59;84.36
63493;BME280;49638;47.526;10.028;2023-04-01T19:20:27;90851.81;;;5.57;84.46
63493;BME280;49638;47.526;10.028;2023-04-01T19:23:53;90857.59;;;5.59;85.43
63493;BME280;49638;47.526;10.028;2023-04-01T19:27:07;90850.78;;;5.58;84.59
63493;BME280;49638;47.526;10.028;2023-04-01T19:36:48;90855.63;;;5.66;84.72
63493;BME280;49638;47.526;10.028;2023-04-01T19:46:42;90855.31;;;5.63;85.77
63493;BME280;49638;47.526;10.028;2023-04-01T19:49:56;90855.16;;;5.69;83.87
63493;BME280;49638;47.526;10.028;2023-04-01T19:53:13;90852.88;;;5.73;84.63
63493;BME280;49638;47.526;10.028;2023-04-01T19:56:20;90856.28;;;5.74;84.44
63493;BME280;49638;47.526;10.028;2023-04-01T20:13:04;90865.78;;;5.63;84.19
63493;BME280;49638;47.526;10.028;2023-04-01T20:16:07;90877.72;;;5.70;84.16
63493;BME280;49638;47.526;10.028;2023-04-01T20:19:10;90875.91;;;5.71;83.54
63493;BME280;49638;47.526;10.028;2023-04-01T20:25:53;90873.44;;;5.64;84.62
63493;BME280;49638;47.526;10.028;2023-04-01T20:29:23;90884.56;;;5.72;84.02
63493;BME280;49638;47.526;10.028;2023-04-01T20:32:57;90882.41;;;5.68;84.49
63493;BME280;49638;47.526;10.028;2023-04-01T20:49:45;90888.78;;;5.73;84.02
63493;BME280;49638;47.526;10.028;2023-04-01T20:53:04;90886.72;;;5.75;83.78
63493;BME280;49638;47.526;10.028;2023-04-01T20:56:14;90907.00;;;5.79;83.28
63493;BME280;49638;47.526;10.028;2023-04-01T21:09:55;90912.09;;;5.86;82.62
63493;BME280;49638;47.526;10.028;2023-04-01T21:13:16;90920.06;;;5.91;81.97
63493;BME280;49638;47.526;10.028;2023-04-01T21:20:19;90913.34;;;5.83;83.07
63493;BME280;49638;47.526;10.028;2023-04-01T21:26:52;90912.25;;;5.79;83.05
63493;BME280;49638;47.526;10.028;2023-04-01T21:33:39;90917.34;;;5.86;82.41
63493;BME280;49638;47.526;10.028;2023-04-01T21:40:40;90927.84;;;5.86;82.88
63493;BME280;49638;47.526;10.028;2023-04-01T21:57:31;90931.50;;;5.85;83.03
63493;BME280;49638;47.526;10.028;2023-04-01T22:00:48;90936.63;;;5.80;83.00
63493;BME280;49638;47.526;10.028;2023-04-01T22:04:09;90932.88;;;5.76;82.82
63493;BME280;49638;47.526;10.028;2023-04-01T22:07:23;90936.53;;;5.75;82.64
63493;BME280;49638;47.526;10.028;2023-04-01T22:13:50;90948.94;;;5.79;82.25
63493;BME280;49638;47.526;10.028;2023-04-01T22:16:58;90935.25;;;5.77;82.45
63493;BME280;49638;47.526;10.028;2023-04-01T22:20:23;90939.81;;;5.82;82.09
63493;BME280;49638;47.526;10.028;2023-04-01T22:23:31;90936.09;;;5.78;82.54
63493;BME280;49638;47.526;10.028;2023-04-01T22:26:44;90936.41;;;5.81;82.91
63493;BME280;49638;47.526;10.028;2023-04-01T22:43:38;90957.28;;;5.76;83.14
63493;BME280;49638;47.526;10.028;2023-04-01T22:49:48;90934.94;;;5.74;82.84
63493;BME280;49638;47.526;10.028;2023-04-01T22:56:24;90957.59;;;5.80;82.93
63493;BME280;49638;47.526;10.028;2023-04-01T22:59:45;90952.38;;;5.80;83.32
63493;BME280;49638;47.526;10.028;2023-04-01T23:06:20;90954.97;;;5.80;83.13
63493;BME280;49638;47.526;10.028;2023-04-01T23:09:25;90943.63;;;5.74;82.80
63493;BME280;49638;47.526;10.028;2023-04-01T23:12:27;90955.44;;;5.77;82.87
63493;BME280;49638;47.526;10.028;2023-04-01T23:15:28;90966.41;;;5.74;83.15
63493;BME280;49638;47.526;10.028;2023-04-01T23:21:40;90967.22;;;5.74;83.25
63493;BME280;49638;47.526;10.028;2023-04-01T23:31:36;90967.69;;;5.71;83.36
63493;BME280;49638;47.526;10.028;2023-04-01T23:34:37;90972.91;;;5.71;82.89
63493;BME280;49638;47.526;10.028;2023-04-01T23:37:37;90969.25;;;5.72;83.20
63493;BME280;49638;47.526;10.028;2023-04-01T23:40:39;90972.91;;;5.71;82.86
63493;BME280;49638;47.526;10.028;2023-04-01T23:43:42;90971.09;;;5.72;82.71
63493;BME280;49638;47.526;10.028;2023-04-01T23:46:46;90975.88;;;5.75;82.52
63493;BME280;49638;47.526;10.028;2023-04-01T23:49:52;90964.47;;;5.69;82.23
63493;BME280;49638;47.526;10.028;2023-04-01T23:52:59;90973.38;;;5.68;82.34
63493;BME280;49638;47.526;10.028;2023-04-01T23:56:02;90986.13;;;5.76;82.50
63493;BME280;49638;47.526;10.028;2023-04-01T23:59:03;90979.50;;;5.74;82.58
